sensor_id;sensor_type;location;lat;lon;timestamp;pressure;altitude;pressure_sealevel;temperature;humidity
6668;BME280;3370;47.712;9.082;2023-02-26T00:00:06;96325.00;;;1.45;74.97
6668;BME280;3370;47.712;9.082;2023-02-26T00:02:35;96314.22;;;1.37;74.96
6668;BME280;3370;47.712;9.082;2023-02-26T00:05:03;96329.63;;;1.26;74.75
6668;BME280;3370;47.712;9.082;2023-02-26T00:07:31;96325.38;;;1.26;75.24
6668;BME280;3370;47.712;9.082;2023-02-26T00:09:57;96329.81;;;1.15;75.79
6668;BME280;3370;47.712;9.082;2023-02-26T00:12:23;96338.03;;;1.26;74.36
6668;BME280;3370;47.712;9.082;2023-02-26T00:14:49;96339.97;;;1.15;75.18
6668;BME280;3370;47.712;9.082;2023-02-26T00:18:26;96341.66;;;1.16;75.68
6668;BME280;3370;47.712;9.082;2023-02-26T00:20:28;96344.22;;;1.13;76.52
6668;BME280;3370;47.712;9.082;2023-02-26T00:22:54;96346.81;;;1.10;75.37
6668;BME280;3370;47.712;9.082;2023-02-26T00:25:20;96350.25;;;1.06;76.27
6668;BME280;3370;47.712;9.082;2023-02-26T00:27:46;96353.72;;;1.02;76.63
6668;BME280;3370;47.712;9.082;2023-02-26T00:30:12;96356.94;;;1.10;76.58
6668;BME280;3370;47.712;9.082;2023-02-26T00:32:39;96344.78;;;1.27;74.48
6668;BME280;3370;47.712;9.082;2023-02-26T00:35:08;96350.72;;;1.26;74.74
6668;BME280;3370;47.712;9.082;2023-02-26T00:38:05;96353.25;;;1.26;74.68
6668;BME280;3370;47.712;9.082;2023-02-26T00:40:46;96351.78;;;1.16;74.82
6668;BME280;3370;47.712;9.082;2023-02-26T00:43:18;96355.28;;;1.09;75.68
6668;BME280;3370;47.712;9.082;2023-02-26T00:51:41;96358.47;;;1.19;74.36
6668;BME280;3370;47.712;9.082;2023-02-26T00:54:17;96365.91;;;1.26;73.90
6668;BME280;3370;47.712;9.082;2023-02-26T00:56:44;96356.66;;;1.25;73.00
6668;BME280;3370;47.712;9.082;2023-02-26T00:59:10;96361.72;;;1.25;73.22
6668;BME280;3370;47.712;9.082;2023-02-26T01:01:35;96360.94;;;1.22;72.94
6668;BME280;3370;47.712;9.082;2023-02-26T01:04:01;96363.50;;;1.20;73.17
6668;BME280;3370;47.712;9.082;2023-02-26T01:06:32;96353.28;;;1.23;72.91
6668;BME280;3370;47.712;9.082;2023-02-26T01:09:16;96354.81;;;1.32;72.65
6668;BME280;3370;47.712;9.082;2023-02-26T01:11:44;96354.06;;;1.27;72.40
6668;BME280;3370;47.712;9.082;2023-02-26T01:14:11;96357.56;;;1.21;71.37
6668;BME280;3370;47.712;9.082;2023-02-26T01:20:28;96362.59;;;1.23;70.52
6668;BME280;3370;47.712;9.082;2023-02-26T01:22:59;96360.16;;;1.18;70.71
6668;BME280;3370;47.712;9.082;2023-02-26T01:25:48;96358.50;;;1.17;69.76
6668;BME280;3370;47.712;9.082;2023-02-26T01:28:15;96361.91;;;1.16;68.38
6668;BME280;3370;47.712;9.082;2023-02-26T01:30:42;96357.16;;;0.98;70.21
6668;BME280;3370;47.712;9.082;2023-02-26T01:44:33;96356.41;;;0.92;71.64
6668;BME280;3370;47.712;9.082;2023-02-26T01:47:30;96361.59;;;0.85;71.73
6668;BME280;3370;47.712;9.082;2023-02-26T01:50:18;96363.25;;;0.87;71.04
6668;BME280;3370;47.712;9.082;2023-02-26T01:55:23;96364.06;;;0.89;71.22
6668;BME280;3370;47.712;9.082;2023-02-26T01:57:55;96359.16;;;0.80;71.32
6668;BME280;3370;47.712;9.082;2023-02-26T02:00:22;96359.19;;;0.79;68.98
6668;BME280;3370;47.712;9.082;2023-02-26T02:02:49;96359.09;;;0.83;69.54
6668;BME280;3370;47.712;9.082;2023-02-26T02:05:41;96365.97;;;0.78;69.09
6668;BME280;3370;47.712;9.082;2023-02-26T02:08:08;96353.22;;;0.83;68.95
6668;BME280;3370;47.712;9.082;2023-02-26T02:10:34;96358.31;;;0.80;68.25
6668;BME280;3370;47.712;9.082;2023-02-26T02:16:54;96356.06;;;0.64;68.25
6668;BME280;3370;47.712;9.082;2023-02-26T02:19:48;96359.53;;;0.59;68.08
6668;BME280;3370;47.712;9.082;2023-02-26T02:23:01;96356.13;;;0.60;66.61
6668;BME280;3370;47.712;9.082;2023-02-26T02:32:13;96355.56;;;0.44;67.53
6668;BME280;3370;47.712;9.082;2023-02-26T02:37:45;96355.66;;;0.37;67.89
6668;BME280;3370;47.712;9.082;2023-02-26T02:40:24;96361.59;;;0.35;68.88
6668;BME280;3370;47.712;9.082;2023-02-26T02:43:05;96364.25;;;0.27;68.90
6668;BME280;3370;47.712;9.082;2023-02-26T02:45:46;96359.91;;;0.34;68.26
6668;BME280;3370;47.712;9.082;2023-02-26T02:50:50;96361.63;;;0.32;68.26
6668;BME280;3370;47.712;9.082;2023-02-26T02:53:28;96363.31;;;0.33;68.66
6668;BME280;3370;47.712;9.082;2023-02-26T02:56:19;96363.19;;;0.41;69.31
6668;BME280;3370;47.712;9.082;2023-02-26T02:59:02;96364.03;;;0.40;68.84
6668;BME280;3370;47.712;9.082;2023-02-26T03:01:32;96372.25;;;0.52;67.87
6668;BME280;3370;47.712;9.082;2023-02-26T03:04:12;96366.50;;;0.44;68.56
6668;BME280;3370;47.712;9.082;2023-02-26T03:06:40;96363.94;;;0.47;68.35
6668;BME280;3370;47.712;9.082;2023-02-26T03:09:08;96367.38;;;0.42;68.53
6668;BME280;3370;47.712;9.082;2023-02-26T03:11:36;96366.56;;;0.41;69.11
6668;BME280;3370;47.712;9.082;2023-02-26T03:14:02;96369.06;;;0.41;68.99
6668;BME280;3370;47.712;9.082;2023-02-26T03:16:53;96364.78;;;0.46;68.94
6668;BME280;3370;47.712;9.082;2023-02-26T03:22:34;96373.59;;;0.24;70.30
6668;BME280;3370;47.712;9.082;2023-02-26T03:30:44;96373.59;;;0.24;70.43
6668;BME280;3370;47.712;9.082;2023-02-26T03:33:36;96381.91;;;0.29;69.96
6668;BME280;3370;47.712;9.082;2023-02-26T03:36:25;96382.13;;;0.16;70.38
6668;BME280;3370;47.712;9.082;2023-02-26T03:39:39;96374.56;;;0.15;71.10
6668;BME280;3370;47.712;9.082;2023-02-26T03:42:29;96379.69;;;0.07;71.46
6668;BME280;3370;47.712;9.082;2023-02-26T03:45:08;96373.63;;;0.21;70.05
6668;BME280;3370;47.712;9.082;2023-02-26T03:47:39;96376.91;;;0.26;69.62
6668;BME280;3370;47.712;9.082;2023-02-26T03:50:12;96363.31;;;0.33;69.35
6668;BME280;3370;47.712;9.082;2023-02-26T03:52:44;96379.44;;;0.26;69.14
6668;BME280;3370;47.712;9.082;2023-02-26T03:55:34;96375.09;;;0.34;68.87
6668;BME280;3370;47.712;9.082;2023-02-26T03:58:01;96391.97;;;0.33;68.48
6668;BME280;3370;47.712;9.082;2023-02-26T04:00:28;96392.81;;;0.32;68.47
6668;BME280;3370;47.712;9.082;2023-02-26T04:03:19;96384.50;;;0.27;69.01
6668;BME280;3370;47.712;9.082;2023-02-26T04:05:51;96382.97;;;0.15;68.76
6668;BME280;3370;47.712;9.082;2023-02-26T04:08:19;96388.75;;;0.24;68.74
6668;BME280;3370;47.712;9.082;2023-02-26T04:10:59;96381.28;;;0.14;69.07
6668;BME280;3370;47.712;9.082;2023-02-26T04:13:28;96382.91;;;0.20;68.65
6668;BME280;3370;47.712;9.082;2023-02-26T04:15:54;96390.44;;;0.22;67.94
6668;BME280;3370;47.712;9.082;2023-02-26T04:18:20;96385.59;;;0.09;68.30
6668;BME280;3370;47.712;9.082;2023-02-26T04:20:46;96388.97;;;0.07;68.21
6668;BME280;3370;47.712;9.082;2023-02-26T04:23:12;96398.28;;;0.03;68.60
6668;BME280;3370;47.712;9.082;2023-02-26T04:25:38;96390.56;;;0.12;67.38
6668;BME280;3370;47.712;9.082;2023-02-26T04:28:04;96383.81;;;0.14;65.72
6668;BME280;3370;47.712;9.082;2023-02-26T04:30:29;96397.38;;;0.07;65.64
6668;BME280;3370;47.712;9.082;2023-02-26T04:32:55;96402.53;;;0.01;64.89
6668;BME280;3370;47.712;9.082;2023-02-26T04:35:21;96415.41;;;-0.14;65.18
6668;BME280;3370;47.712;9.082;2023-02-26T04:37:47;96406.00;;;-0.06;64.48
6668;BME280;3370;47.712;9.082;2023-02-26T04:40:13;96422.88;;;-0.08;64.18
6668;BME280;3370;47.712;9.082;2023-02-26T04:42:38;96406.09;;;-0.12;64.20
6668;BME280;3370;47.712;9.082;2023-02-26T04:45:05;96418.69;;;-0.09;63.19
6668;BME280;3370;47.712;9.082;2023-02-26T04:47:31;96413.03;;;-0.28;62.83
6668;BME280;3370;47.712;9.082;2023-02-26T04:49:56;96420.63;;;-0.30;62.89
6668;BME280;3370;47.712;9.082;2023-02-26T04:52:22;96416.38;;;-0.28;62.73
6668;BME280;3370;47.712;9.082;2023-02-26T04:54:48;96417.22;;;-0.27;63.33
6668;BME280;3370;47.712;9.082;2023-02-26T04:57:14;96418.97;;;-0.31;63.49
6668;BME280;3370;47.712;9.082;2023-02-26T04:59:40;96424.97;;;-0.38;64.00
6668;BME280;3370;47.712;9.082;2023-02-26T05:02:06;96427.44;;;-0.36;64.61
6668;BME280;3370;47.712;9.082;2023-02-26T05:04:32;96417.31;;;-0.35;64.01
6668;BME280;3370;47.712;9.082;2023-02-26T05:06:58;96431.59;;;-0.31;63.56
6668;BME280;3370;47.712;9.082;2023-02-26T05:09:24;96430.81;;;-0.36;63.90
6668;BME280;3370;47.712;9.082;2023-02-26T05:11:49;96429.94;;;-0.35;63.92
6668;BME280;3370;47.712;9.082;2023-02-26T05:14:16;96444.31;;;-0.39;63.98
6668;BME280;3370;47.712;9.082;2023-02-26T05:16:42;96448.50;;;-0.36;63.49
6668;BME280;3370;47.712;9.082;2023-02-26T05:19:08;96439.34;;;-0.46;63.57
6668;BME280;3370;47.712;9.082;2023-02-26T05:21:33;96438.50;;;-0.45;63.83
6668;BME280;3370;47.712;9.082;2023-02-26T05:23:59;96440.19;;;-0.47;63.32
6668;BME280;3370;47.712;9.082;2023-02-26T05:26:25;96445.28;;;-0.50;62.98
6668;BME280;3370;47.712;9.082;2023-02-26T05:28:51;96453.69;;;-0.48;63.19
6668;BME280;3370;47.712;9.082;2023-02-26T05:31:17;96458.84;;;-0.57;63.50
6668;BME280;3370;47.712;9.082;2023-02-26T05:33:43;96459.69;;;-0.59;63.59
6668;BME280;3370;47.712;9.082;2023-02-26T05:36:10;96465.63;;;-0.61;63.20
6668;BME280;3370;47.712;9.082;2023-02-26T05:38:36;96463.91;;;-0.61;63.25
6668;BME280;3370;47.712;9.082;2023-02-26T05:41:02;96470.69;;;-0.63;63.14
6668;BME280;3370;47.712;9.082;2023-02-26T05:43:28;96469.84;;;-0.65;63.06
6668;BME280;3370;47.712;9.082;2023-02-26T05:45:54;96472.38;;;-0.65;62.79
6668;BME280;3370;47.712;9.082;2023-02-26T05:48:21;96476.63;;;-0.68;63.17
6668;BME280;3370;47.712;9.082;2023-02-26T05:50:51;96476.56;;;-0.62;63.30
6668;BME280;3370;47.712;9.082;2023-02-26T05:53:17;96480.78;;;-0.64;62.70
6668;BME280;3370;47.712;9.082;2023-02-26T05:55:43;96477.63;;;-0.83;63.25
6668;BME280;3370;47.712;9.082;2023-02-26T05:58:10;96479.34;;;-0.88;63.28
6668;BME280;3370;47.712;9.082;2023-02-26T06:00:36;96486.84;;;-0.82;64.04
6668;BME280;3370;47.712;9.082;2023-02-26T06:03:02;96475.06;;;-0.82;63.71
6668;BME280;3370;47.712;9.082;2023-02-26T06:05:28;96481.00;;;-0.86;63.77
6668;BME280;3370;47.712;9.082;2023-02-26T06:07:54;96478.47;;;-0.84;64.31
6668;BME280;3370;47.712;9.082;2023-02-26T06:10:19;96474.31;;;-0.94;64.80
6668;BME280;3370;47.712;9.082;2023-02-26T06:12:45;96483.59;;;-0.92;63.94
6668;BME280;3370;47.712;9.082;2023-02-26T06:15:11;96486.94;;;-0.90;63.94
6668;BME280;3370;47.712;9.082;2023-02-26T06:17:38;96496.28;;;-1.00;64.42
6668;BME280;3370;47.712;9.082;2023-02-26T06:20:04;96494.59;;;-1.04;64.30
6668;BME280;3370;47.712;9.082;2023-02-26T06:22:30;96492.91;;;-1.02;64.42
6668;BME280;3370;47.712;9.082;2023-02-26T06:24:56;96497.19;;;-1.08;64.06
6668;BME280;3370;47.712;9.082;2023-02-26T06:27:23;96496.31;;;-1.07;64.35
6668;BME280;3370;47.712;9.082;2023-02-26T06:29:49;96499.78;;;-1.19;64.49
6668;BME280;3370;47.712;9.082;2023-02-26T06:32:15;96516.50;;;-1.09;64.69
6668;BME280;3370;47.712;9.082;2023-02-26T06:34:41;96514.84;;;-1.10;64.20
6668;BME280;3370;47.712;9.082;2023-02-26T06:37:07;96508.09;;;-1.09;64.23
6668;BME280;3370;47.712;9.082;2023-02-26T06:39:32;96520.72;;;-1.06;64.31
6668;BME280;3370;47.712;9.082;2023-02-26T06:41:58;96517.34;;;-1.07;64.36
6668;BME280;3370;47.712;9.082;2023-02-26T06:44:24;96514.88;;;-1.13;64.56
6668;BME280;3370;47.712;9.082;2023-02-26T06:46:50;96520.78;;;-1.17;64.90
6668;BME280;3370;47.712;9.082;2023-02-26T06:49:16;96519.91;;;-1.13;64.80
6668;BME280;3370;47.712;9.082;2023-02-26T06:51:42;96517.38;;;-1.13;64.46
6668;BME280;3370;47.712;9.082;2023-02-26T06:54:08;96528.34;;;-1.17;64.59
6668;BME280;3370;47.712;9.082;2023-02-26T06:56:33;96532.56;;;-1.18;64.96
6668;BME280;3370;47.712;9.082;2023-02-26T06:59:00;96533.41;;;-1.14;64.64
6668;BME280;3370;47.712;9.082;2023-02-26T07:01:26;96531.63;;;-1.06;63.97
6668;BME280;3370;47.712;9.082;2023-02-26T07:03:52;96537.59;;;-1.16;64.47
6668;BME280;3370;47.712;9.082;2023-02-26T07:06:18;96546.00;;;-1.14;64.93
6668;BME280;3370;47.712;9.082;2023-02-26T07:08:43;96541.72;;;-1.03;64.87
6668;BME280;3370;47.712;9.082;2023-02-26T07:11:09;96540.84;;;-1.00;64.78
6668;BME280;3370;47.712;9.082;2023-02-26T07:13:36;96541.72;;;-1.06;64.64
6668;BME280;3370;47.712;9.082;2023-02-26T07:16:04;96547.66;;;-1.10;65.04
6668;BME280;3370;47.712;9.082;2023-02-26T07:18:35;96547.72;;;-1.19;65.60
6668;BME280;3370;47.712;9.082;2023-02-26T07:21:02;96553.56;;;-1.14;64.96
6668;BME280;3370;47.712;9.082;2023-02-26T07:23:29;96545.97;;;-1.11;64.81
6668;BME280;3370;47.712;9.082;2023-02-26T07:25:55;96550.19;;;-1.13;65.32
6668;BME280;3370;47.712;9.082;2023-02-26T07:28:22;96552.56;;;-0.94;64.18
6668;BME280;3370;47.712;9.082;2023-02-26T07:30:48;96559.31;;;-0.93;64.07
6668;BME280;3370;47.712;9.082;2023-02-26T07:33:14;96561.84;;;-0.93;64.02
6668;BME280;3370;47.712;9.082;2023-02-26T07:35:40;96562.72;;;-0.96;64.41
6668;BME280;3370;47.712;9.082;2023-02-26T07:38:06;96565.19;;;-0.94;63.89
6668;BME280;3370;47.712;9.082;2023-02-26T07:40:33;96576.97;;;-0.90;63.91
6668;BME280;3370;47.712;9.082;2023-02-26T07:42:58;96584.53;;;-0.89;63.94
6668;BME280;3370;47.712;9.082;2023-02-26T07:45:24;96589.66;;;-1.04;63.46
6668;BME280;3370;47.712;9.082;2023-02-26T07:47:51;96595.59;;;-1.10;63.90
6668;BME280;3370;47.712;9.082;2023-02-26T07:50:19;96592.25;;;-1.18;64.02
6668;BME280;3370;47.712;9.082;2023-02-26T07:52:46;96602.34;;;-1.15;63.86
6668;BME280;3370;47.712;9.082;2023-02-26T07:55:12;96601.50;;;-1.14;64.31
6668;BME280;3370;47.712;9.082;2023-02-26T07:57:38;96608.22;;;-1.08;64.46
6668;BME280;3370;47.712;9.082;2023-02-26T08:00:05;96611.47;;;-0.92;63.99
6668;BME280;3370;47.712;9.082;2023-02-26T08:02:31;96603.91;;;-0.92;63.28
6668;BME280;3370;47.712;9.082;2023-02-26T08:04:57;96604.75;;;-0.97;63.36
6668;BME280;3370;47.712;9.082;2023-02-26T08:07:23;96614.88;;;-1.00;63.07
6668;BME280;3370;47.712;9.082;2023-02-26T08:09:49;96615.72;;;-1.05;63.15
6668;BME280;3370;47.712;9.082;2023-02-26T08:12:14;96614.91;;;-1.09;62.57
6668;BME280;3370;47.712;9.082;2023-02-26T08:14:40;96609.84;;;-1.00;62.64
6668;BME280;3370;47.712;9.082;2023-02-26T08:17:09;96600.50;;;-0.91;62.22
6668;BME280;3370;47.712;9.082;2023-02-26T08:19:36;96608.09;;;-0.93;62.66
6668;BME280;3370;47.712;9.082;2023-02-26T08:22:02;96598.81;;;-0.86;62.45
6668;BME280;3370;47.712;9.082;2023-02-26T08:24:28;96598.75;;;-0.80;62.02
6668;BME280;3370;47.712;9.082;2023-02-26T08:26:54;96594.50;;;-0.77;62.12
6668;BME280;3370;47.712;9.082;2023-02-26T08:29:19;96591.91;;;-0.67;62.47
6668;BME280;3370;47.712;9.082;2023-02-26T08:31:45;96591.88;;;-0.61;61.21
6668;BME280;3370;47.712;9.082;2023-02-26T08:34:11;96592.72;;;-0.61;61.54
6668;BME280;3370;47.712;9.082;2023-02-26T08:36:38;96591.88;;;-0.63;60.96
6668;BME280;3370;47.712;9.082;2023-02-26T08:39:05;96581.69;;;-0.53;60.60
6668;BME280;3370;47.712;9.082;2023-02-26T08:41:31;96591.81;;;-0.53;60.41
6668;BME280;3370;47.712;9.082;2023-02-26T08:44:01;96588.28;;;-0.34;60.27
6668;BME280;3370;47.712;9.082;2023-02-26T08:46:27;96599.22;;;-0.33;60.40
6668;BME280;3370;47.712;9.082;2023-02-26T08:48:53;96594.13;;;-0.32;59.98
6668;BME280;3370;47.712;9.082;2023-02-26T08:51:22;96592.41;;;-0.27;59.85
6668;BME280;3370;47.712;9.082;2023-02-26T08:53:48;96594.06;;;-0.23;58.94
6668;BME280;3370;47.712;9.082;2023-02-26T08:56:15;96589.81;;;-0.21;59.02
6668;BME280;3370;47.712;9.082;2023-02-26T08:58:42;96594.03;;;-0.20;59.07
6668;BME280;3370;47.712;9.082;2023-02-26T09:01:08;96596.56;;;-0.20;59.48
6668;BME280;3370;47.712;9.082;2023-02-26T09:03:34;96599.88;;;-0.14;59.73
6668;BME280;3370;47.712;9.082;2023-02-26T09:06:01;96596.50;;;-0.16;59.78
6668;BME280;3370;47.712;9.082;2023-02-26T09:08:27;96608.28;;;-0.12;59.09
6668;BME280;3370;47.712;9.082;2023-02-26T09:10:53;96604.06;;;-0.13;59.37
6668;BME280;3370;47.712;9.082;2023-02-26T09:13:18;96607.50;;;-0.21;59.48
6668;BME280;3370;47.712;9.082;2023-02-26T09:15:44;96596.56;;;-0.20;59.88
6668;BME280;3370;47.712;9.082;2023-02-26T09:18:11;96599.09;;;-0.21;59.40
6668;BME280;3370;47.712;9.082;2023-02-26T09:20:42;96605.03;;;-0.27;58.66
6668;BME280;3370;47.712;9.082;2023-02-26T09:23:08;96608.47;;;-0.31;58.62
6668;BME280;3370;47.712;9.082;2023-02-26T09:25:34;96612.66;;;-0.31;58.51
6668;BME280;3370;47.712;9.082;2023-02-26T09:28:00;96600.03;;;-0.33;58.35
6668;BME280;3370;47.712;9.082;2023-02-26T09:30:26;96614.38;;;-0.33;58.92
6668;BME280;3370;47.712;9.082;2023-02-26T09:32:53;96620.25;;;-0.33;59.36
6668;BME280;3370;47.712;9.082;2023-02-26T09:35:18;96611.81;;;-0.29;59.03
6668;BME280;3370;47.712;9.082;2023-02-26T09:37:44;96613.47;;;-0.28;58.74
6668;BME280;3370;47.712;9.082;2023-02-26T09:46:16;96619.94;;;-0.02;57.78
6668;BME280;3370;47.712;9.082;2023-02-26T09:48:45;96623.19;;;0.12;57.29
6668;BME280;3370;47.712;9.082;2023-02-26T09:51:18;96622.28;;;0.18;57.57
6668;BME280;3370;47.712;9.082;2023-02-26T09:53:48;96633.25;;;0.18;58.10
6668;BME280;3370;47.712;9.082;2023-02-26T09:56:22;96635.72;;;0.23;57.91
6668;BME280;3370;47.712;9.082;2023-02-26T09:58:49;96637.31;;;0.32;56.90
6668;BME280;3370;47.712;9.082;2023-02-26T10:01:46;96640.53;;;0.43;56.72
6668;BME280;3370;47.712;9.082;2023-02-26T10:04:53;96625.91;;;0.67;56.41
6668;BME280;3370;47.712;9.082;2023-02-26T10:13:05;96625.06;;;1.28;56.70
6668;BME280;3370;47.712;9.082;2023-02-26T10:15:41;96626.72;;;1.32;57.47
6668;BME280;3370;47.712;9.082;2023-02-26T10:18:25;96613.88;;;1.43;55.55
6668;BME280;3370;47.712;9.082;2023-02-26T10:21:03;96627.22;;;1.53;55.83
6668;BME280;3370;47.712;9.082;2023-02-26T10:23:45;96622.69;;;1.19;54.53
6668;BME280;3370;47.712;9.082;2023-02-26T10:26:20;96630.28;;;1.19;55.45
6668;BME280;3370;47.712;9.082;2023-02-26T10:34:53;96622.41;;;1.89;56.32
6668;BME280;3370;47.712;9.082;2023-02-26T10:38:12;96626.19;;;2.15;55.30
6668;BME280;3370;47.712;9.082;2023-02-26T10:40:52;96638.91;;;2.11;54.32
6668;BME280;3370;47.712;9.082;2023-02-26T10:43:40;96644.44;;;1.87;53.33
6668;BME280;3370;47.712;9.082;2023-02-26T10:50:17;96645.84;;;1.50;53.53
6668;BME280;3370;47.712;9.082;2023-02-26T10:52:45;96636.50;;;1.54;53.71
6668;BME280;3370;47.712;9.082;2023-02-26T10:58:24;96652.22;;;1.20;54.42
6668;BME280;3370;47.712;9.082;2023-02-26T11:00:53;96653.81;;;1.26;53.51
6668;BME280;3370;47.712;9.082;2023-02-26T11:05:48;96655.47;;;1.28;54.92
6668;BME280;3370;47.712;9.082;2023-02-26T11:08:23;96661.94;;;1.48;54.92
6668;BME280;3370;47.712;9.082;2023-02-26T11:11:04;96658.25;;;1.67;54.28
6668;BME280;3370;47.712;9.082;2023-02-26T11:13:33;96651.06;;;1.94;53.42
6668;BME280;3370;47.712;9.082;2023-02-26T11:16:12;96648.84;;;2.24;52.73
6668;BME280;3370;47.712;9.082;2023-02-26T11:18:41;96647.50;;;2.49;52.12
6668;BME280;3370;47.712;9.082;2023-02-26T11:21:16;96644.78;;;2.59;50.05
6668;BME280;3370;47.712;9.082;2023-02-26T11:23:43;96649.44;;;2.80;51.05
6668;BME280;3370;47.712;9.082;2023-02-26T11:26:17;96652.25;;;3.07;51.53
6668;BME280;3370;47.712;9.082;2023-02-26T11:28:47;96646.41;;;2.63;52.01
6668;BME280;3370;47.712;9.082;2023-02-26T11:31:23;96652.72;;;2.42;51.40
6668;BME280;3370;47.712;9.082;2023-02-26T11:34:03;96653.47;;;2.02;51.93
6668;BME280;3370;47.712;9.082;2023-02-26T11:36:32;96650.78;;;2.09;52.19
6668;BME280;3370;47.712;9.082;2023-02-26T11:39:09;96652.69;;;3.24;52.52
6668;BME280;3370;47.712;9.082;2023-02-26T11:41:38;96643.16;;;5.27;45.91
6668;BME280;3370;47.712;9.082;2023-02-26T11:44:12;96636.78;;;5.68;45.78
6668;BME280;3370;47.712;9.082;2023-02-26T11:46:45;96637.94;;;4.73;44.93
6668;BME280;3370;47.712;9.082;2023-02-26T11:49:17;96645.25;;;3.90;46.62
6668;BME280;3370;47.712;9.082;2023-02-26T11:51:59;96637.31;;;3.32;48.01
6668;BME280;3370;47.712;9.082;2023-02-26T11:54:28;96628.59;;;3.05;48.62
6668;BME280;3370;47.712;9.082;2023-02-26T11:57:02;96625.13;;;3.09;49.57
6668;BME280;3370;47.712;9.082;2023-02-26T11:59:32;96633.78;;;2.99;49.67
6668;BME280;3370;47.712;9.082;2023-02-26T12:02:10;96635.19;;;2.73;50.44
6668;BME280;3370;47.712;9.082;2023-02-26T12:04:39;96637.72;;;2.73;51.22
6668;BME280;3370;47.712;9.082;2023-02-26T12:07:12;96635.78;;;2.44;51.03
6668;BME280;3370;47.712;9.082;2023-02-26T12:09:38;96638.63;;;2.28;51.51
6668;BME280;3370;47.712;9.082;2023-02-26T12:12:25;96636.88;;;2.30;52.06
6668;BME280;3370;47.712;9.082;2023-02-26T12:26:24;96615.31;;;9.76;36.32
6668;BME280;3370;47.712;9.082;2023-02-26T12:29:22;96621.69;;;7.75;39.73
6668;BME280;3370;47.712;9.082;2023-02-26T12:32:14;96614.69;;;8.40;40.02
6668;BME280;3370;47.712;9.082;2023-02-26T12:35:14;96624.34;;;7.29;41.16
6668;BME280;3370;47.712;9.082;2023-02-26T12:38:08;96627.16;;;6.99;42.05
6668;BME280;3370;47.712;9.082;2023-02-26T12:40:47;96628.06;;;7.64;41.67
6668;BME280;3370;47.712;9.082;2023-02-26T12:43:46;96624.78;;;7.61;42.40
6668;BME280;3370;47.712;9.082;2023-02-26T12:52:12;96630.56;;;6.04;46.49
6668;BME280;3370;47.712;9.082;2023-02-26T12:55:21;96640.78;;;6.04;48.18
6668;BME280;3370;47.712;9.082;2023-02-26T13:04:01;96622.78;;;8.10;42.61
6668;BME280;3370;47.712;9.082;2023-02-26T13:10:02;96639.66;;;5.84;46.75
6668;BME280;3370;47.712;9.082;2023-02-26T13:18:30;96652.06;;;3.54;51.37
6668;BME280;3370;47.712;9.082;2023-02-26T13:21:22;96659.53;;;3.22;52.47
6668;BME280;3370;47.712;9.082;2023-02-26T13:24:19;96657.41;;;3.04;54.91
6668;BME280;3370;47.712;9.082;2023-02-26T13:26:47;96658.50;;;2.92;53.83
6668;BME280;3370;47.712;9.082;2023-02-26T13:29:31;96662.00;;;2.86;53.97
6668;BME280;3370;47.712;9.082;2023-02-26T13:32:23;96669.69;;;2.83;54.57
6668;BME280;3370;47.712;9.082;2023-02-26T13:35:18;96664.38;;;3.33;52.28
6668;BME280;3370;47.712;9.082;2023-02-26T13:37:55;96676.50;;;3.59;51.15
6668;BME280;3370;47.712;9.082;2023-02-26T13:40:52;96660.03;;;3.74;50.95
6668;BME280;3370;47.712;9.082;2023-02-26T13:49:38;96676.88;;;2.63;53.07
6668;BME280;3370;47.712;9.082;2023-02-26T13:52:33;96669.66;;;2.41;52.15
6668;BME280;3370;47.712;9.082;2023-02-26T13:55:03;96667.19;;;2.38;54.09
6668;BME280;3370;47.712;9.082;2023-02-26T13:57:56;96678.16;;;2.39;55.32
6668;BME280;3370;47.712;9.082;2023-02-26T14:00:33;96673.03;;;2.42;54.09
6668;BME280;3370;47.712;9.082;2023-02-26T14:14:18;96647.97;;;5.36;49.01
6668;BME280;3370;47.712;9.082;2023-02-26T14:19:36;96639.72;;;6.35;44.55
6668;BME280;3370;47.712;9.082;2023-02-26T14:25:08;96641.59;;;6.29;44.87
6668;BME280;3370;47.712;9.082;2023-02-26T14:27:41;96648.31;;;6.07;44.51
6668;BME280;3370;47.712;9.082;2023-02-26T14:30:14;96652.03;;;5.70;45.41
6668;BME280;3370;47.712;9.082;2023-02-26T14:35:39;96669.75;;;4.58;48.52
6668;BME280;3370;47.712;9.082;2023-02-26T14:38:15;96676.50;;;4.28;49.61
6668;BME280;3370;47.712;9.082;2023-02-26T14:43:39;96678.03;;;4.02;52.66
6668;BME280;3370;47.712;9.082;2023-02-26T14:46:07;96665.06;;;4.45;52.07
6668;BME280;3370;47.712;9.082;2023-02-26T14:48:36;96666.56;;;4.82;50.65
6668;BME280;3370;47.712;9.082;2023-02-26T14:54:18;96675.44;;;5.28;49.24
6668;BME280;3370;47.712;9.082;2023-02-26T15:00:05;96678.00;;;4.98;49.30
6668;BME280;3370;47.712;9.082;2023-02-26T15:11:34;96684.19;;;4.58;50.26
6668;BME280;3370;47.712;9.082;2023-02-26T15:20:17;96691.44;;;4.08;50.57
6668;BME280;3370;47.712;9.082;2023-02-26T15:25:34;96719.81;;;3.55;56.58
6668;BME280;3370;47.712;9.082;2023-02-26T15:28:06;96722.38;;;3.53;59.04
6668;BME280;3370;47.712;9.082;2023-02-26T15:30:35;96724.41;;;3.39;59.63
6668;BME280;3370;47.712;9.082;2023-02-26T15:33:12;96732.59;;;3.11;59.51
6668;BME280;3370;47.712;9.082;2023-02-26T15:35:38;96735.19;;;3.08;59.55
6668;BME280;3370;47.712;9.082;2023-02-26T15:38:04;96722.66;;;3.00;59.33
6668;BME280;3370;47.712;9.082;2023-02-26T15:40:33;96733.75;;;2.96;59.47
6668;BME280;3370;47.712;9.082;2023-02-26T15:43:01;96737.75;;;3.08;58.19
6668;BME280;3370;47.712;9.082;2023-02-26T15:45:33;96739.41;;;3.11;57.85
6668;BME280;3370;47.712;9.082;2023-02-26T15:48:06;96740.41;;;3.02;57.47
6668;BME280;3370;47.712;9.082;2023-02-26T15:50:40;96735.75;;;2.80;58.06
6668;BME280;3370;47.712;9.082;2023-02-26T15:53:10;96748.00;;;2.60;59.20
6668;BME280;3370;47.712;9.082;2023-02-26T15:55:45;96743.31;;;2.38;59.43
6668;BME280;3370;47.712;9.082;2023-02-26T15:58:36;96755.41;;;2.22;60.93
6668;BME280;3370;47.712;9.082;2023-02-26T16:01:04;96765.84;;;2.05;61.95
6668;BME280;3370;47.712;9.082;2023-02-26T16:03:36;96762.69;;;1.91;65.82
6668;BME280;3370;47.712;9.082;2023-02-26T16:06:04;96764.63;;;1.73;67.54
6668;BME280;3370;47.712;9.082;2023-02-26T16:08:31;96767.41;;;1.57;68.19
6668;BME280;3370;47.712;9.082;2023-02-26T16:10:59;96770.13;;;1.41;68.36
6668;BME280;3370;47.712;9.082;2023-02-26T16:13:31;96768.50;;;1.36;68.10
6668;BME280;3370;47.712;9.082;2023-02-26T16:16:02;96774.53;;;1.28;67.72
6668;BME280;3370;47.712;9.082;2023-02-26T16:18:30;96776.22;;;1.28;67.45
6668;BME280;3370;47.712;9.082;2023-02-26T16:21:00;96766.91;;;1.28;67.05
6668;BME280;3370;47.712;9.082;2023-02-26T16:23:40;96769.44;;;1.30;66.34
6668;BME280;3370;47.712;9.082;2023-02-26T16:26:16;96783.88;;;1.23;66.53
6668;BME280;3370;47.712;9.082;2023-02-26T16:28:46;96786.47;;;1.17;65.97
6668;BME280;3370;47.712;9.082;2023-02-26T16:31:23;96792.44;;;1.13;66.39
6668;BME280;3370;47.712;9.082;2023-02-26T16:34:01;96785.66;;;1.15;67.20
6668;BME280;3370;47.712;9.082;2023-02-26T16:36:39;96784.06;;;1.06;68.60